Sonrisa — WDH7488 — position and weather

sailwx.info

Track history (hours):
 
Tides and Currents Weather Stations Pressure Air Temp Water Temp Dewpoint Dewpoint Depression Visibility Wind Speed Wind Dir Waves Ship Positions

Sonrisa

Owner: Torok, Gregory S, Redwood City, CA. More information available from US FCC via Universal Licensing System and Coast Guard Vessel Documentation Center.

Last reported at 2017-Sep-24 13:40 UTC. Time now 2017-Sep-24 14:12 UTC.
Position N 34°34' W 120°42'.

Length 13 m.

Type: Sailing vessel. MMSI: 367648650.

Date/timePositionNaut miles runAvg speedWind from/ knotsBaromVisibWave heightAir tempDewpointWater temp
2017-Sep-24 13:40N 34°34' W 120°42'1 5.3
2017-Sep-24 13:30N 34°33' W 120°42'2 4.9
2017-Sep-24 13:00N 34°31' W 120°40'2 4.5
2017-Sep-24 12:30N 34°30' W 120°38'3 4.5
2017-Sep-24 11:55N 34°29' W 120°35'2 5.2
2017-Sep-24 11:30N 34°27' W 120°33'3 5.6
2017-Sep-24 11:00N 34°26' W 120°30'3 5.3
2017-Sep-24 10:29N 34°25' W 120°27'3 6.0
2017-Sep-24 10:00N 34°26' W 120°24'3 2.2
2017-Sep-24 08:49N 34°27' W 120°21'0 0.0
2017-Sep-24 08:28N 34°27' W 120°21'0 0.0
2017-Sep-24 07:58N 34°27' W 120°21'0 0.0
2017-Sep-24 07:28N 34°27' W 120°21'0 0.0
2017-Sep-24 06:58N 34°27' W 120°21'0 0.0
2017-Sep-24 06:27N 34°27' W 120°21'0 0.0
2017-Sep-24 05:59N 34°27' W 120°21'0 0.0
2017-Sep-24 05:29N 34°27' W 120°21'1 2.9
2017-Sep-24 05:00N 34°26' W 120°22'2 4.8
2017-Sep-24 04:30N 34°26' W 120°25'1 2.5
2017-Sep-24 03:57N 34°27' W 120°26'0 0.0
2017-Sep-24 03:30N 34°27' W 120°26'0 0.1
2017-Sep-24 03:00N 34°27' W 120°26'0 0.0
2017-Sep-24 02:30N 34°27' W 120°26'0 0.0
2017-Sep-24 02:00N 34°27' W 120°26'0 0.0
2017-Sep-24 01:18N 34°27' W 120°26'0 0.0
2017-Sep-24 01:00N 34°27' W 120°26'0 0.0
2017-Sep-24 00:24N 34°27' W 120°26'0 0.0
2017-Sep-24 00:00N 34°27' W 120°26'0 0.6
2017-Sep-23 23:30N 34°27' W 120°26'2 3.5
2017-Sep-23 23:00N 34°26' W 120°24'2 3.1
2017-Sep-23 22:30N 34°26' W 120°23'1 2.9
2017-Sep-23 21:59N 34°25' W 120°21'2 3.2
2017-Sep-23 21:28N 34°26' W 120°19'3 4.9
2017-Sep-23 20:57N 34°26' W 120°16'3 6.2
2017-Sep-23 20:29N 34°25' W 120°13'5 6.2
2017-Sep-23 19:39N 34°25' W 120°07'21 0.5
2017-Sep-22 00:37N 34°24' W 119°42'0 0.0
2017-Sep-21 22:52N 34°24' W 119°42'0 0.0
2017-Sep-21 22:25N 34°24' W 119°42'0 0.0
2017-Sep-21 20:28N 34°24' W 119°42'0 0.0
2017-Sep-21 18:31N 34°24' W 119°42'0 0.0
2017-Sep-21 18:28N 34°24' W 119°42'0 0.0
2017-Sep-21 17:38N 34°24' W 119°42'0 0.0
2017-Sep-21 17:20N 34°24' W 119°42'0 0.0
2017-Sep-21 16:17N 34°24' W 119°42'0 0.0
2017-Sep-21 14:32N 34°24' W 119°42'0 0.0
2017-Sep-21 14:26N 34°24' W 119°42'0 0.0
2017-Sep-21 13:14N 34°24' W 119°42'0 0.0
2017-Sep-21 12:59N 34°24' W 119°42'0 0.0
2017-Sep-21 11:35N 34°24' W 119°42'0 0.0
2017-Sep-21 10:11N 34°24' W 119°42'0 0.0
2017-Sep-21 09:41N 34°24' W 119°42'0 0.0
2017-Sep-21 09:26N 34°24' W 119°42'0 0.0
2017-Sep-21 07:44N 34°24' W 119°42'0 0.0
2017-Sep-21 04:35N 34°24' W 119°42'0 0.0
2017-Sep-21 03:14N 34°24' W 119°42'0 0.2
2017-Sep-21 01:48N 34°24' W 119°41'1 3.8
2017-Sep-21 01:30N 34°23' W 119°41'3 5.2
2017-Sep-21 00:54N 34°20' W 119°42'3 6.2
2017-Sep-21 00:30N 34°18' W 119°43'4 6.4
2017-Sep-20 23:50N 34°14' W 119°45'2 7.0
2017-Sep-20 23:30N 34°12' W 119°46'4 6.9
2017-Sep-20 22:58N 34°08' W 119°47'3 6.2
2017-Sep-20 22:30N 34°05' W 119°48'2 2.8
2017-Sep-20 21:43N 34°03' W 119°49'0 0.0
2017-Sep-20 21:10N 34°03' W 119°49'0 0.0
2017-Sep-20 20:40N 34°03' W 119°49'0 0.0
2017-Sep-20 20:19N 34°03' W 119°49'0 0.0
2017-Sep-20 19:58N 34°03' W 119°49'0 0.0
2017-Sep-20 19:04N 34°03' W 119°49'0 1.6
2017-Sep-20 18:46N 34°04' W 119°49'3 5.2
2017-Sep-20 18:05N 34°04' W 119°45'2 6.4
2017-Sep-20 17:43N 34°04' W 119°42'1 6.2
2017-Sep-20 17:30N 34°04' W 119°41'4 6.2
2017-Sep-20 16:48N 34°04' W 119°35'4 6.5
2017-Sep-20 16:11N 34°02' W 119°31'1 0.1
2017-Sep-19 23:19N 34°01' W 119°31'2 5.9
2017-Sep-19 22:56N 34°01' W 119°28'4 5.2
2017-Sep-19 22:07N 34°00' W 119°23'1 5.4
2017-Sep-19 22:00N 34°00' W 119°22'3 4.8
2017-Sep-19 21:27N 33°59' W 119°19'2 5.3
2017-Sep-19 21:00N 33°59' W 119°16'3 4.9
2017-Sep-19 20:29N 33°59' W 119°13'3 5.8
2017-Sep-19 19:59N 33°59' W 119°10'3 5.7
2017-Sep-19 19:30N 33°59' W 119°06'3 5.4
2017-Sep-19 19:00N 33°59' W 119°03'3 5.6
2017-Sep-19 18:30N 33°59' W 118°60'3 5.7
2017-Sep-19 18:00N 33°59' W 118°56'3 5.7
2017-Sep-19 17:30N 33°59' W 118°53'  
2017-Sep-14 21:41N 34°01' W 118°55'2 6.7
2017-Sep-14 21:22N 34°02' W 118°58'2 5.6
2017-Sep-14 21:00N 34°02' W 119°00'3 6.4
2017-Sep-14 20:30N 34°03' W 119°04'2 3.2
2017-Sep-14 20:00N 34°04' W 119°05'2 4.3
2017-Sep-14 19:29N 34°05' W 119°08'3 4.8
2017-Sep-14 18:57N 34°06' W 119°10'2 4.5
2017-Sep-14 18:26N 34°08' W 119°13'2 3.7
2017-Sep-14 18:00N 34°09' W 119°14'  
Track history (hours):
 
Tides and Currents Weather Stations Pressure Air Temp Water Temp Dewpoint Dewpoint Depression Visibility Wind Speed Wind Dir Waves Ship Positions

Sonrisa

Owner: Torok, Gregory S, Redwood City, CA. More information available from US FCC via Universal Licensing System and Coast Guard Vessel Documentation Center.

Last reported at 2017-Sep-24 13:40 UTC. Time now 2017-Sep-24 14:12 UTC.
Position N 34°34' W 120°42'.

Length 13 m.

Type: Sailing vessel. MMSI: 367648650.

Date/timePositionNaut miles runAvg speedWind from/ knotsBaromVisibWave heightAir tempDewpointWater temp
2017-Sep-24 13:40N 34°34' W 120°42'1 5.3
2017-Sep-24 13:30N 34°33' W 120°42'2 4.9
2017-Sep-24 13:00N 34°31' W 120°40'2 4.5
2017-Sep-24 12:30N 34°30' W 120°38'3 4.5
2017-Sep-24 11:55N 34°29' W 120°35'2 5.2
2017-Sep-24 11:30N 34°27' W 120°33'3 5.6
2017-Sep-24 11:00N 34°26' W 120°30'3 5.3
2017-Sep-24 10:29N 34°25' W 120°27'3 6.0
2017-Sep-24 10:00N 34°26' W 120°24'3 2.2
2017-Sep-24 08:49N 34°27' W 120°21'0 0.0
2017-Sep-24 08:28N 34°27' W 120°21'0 0.0
2017-Sep-24 07:58N 34°27' W 120°21'0 0.0
2017-Sep-24 07:28N 34°27' W 120°21'0 0.0
2017-Sep-24 06:58N 34°27' W 120°21'0 0.0
2017-Sep-24 06:27N 34°27' W 120°21'0 0.0
2017-Sep-24 05:59N 34°27' W 120°21'0 0.0
2017-Sep-24 05:29N 34°27' W 120°21'1 2.9
2017-Sep-24 05:00N 34°26' W 120°22'2 4.8
2017-Sep-24 04:30N 34°26' W 120°25'1 2.5
2017-Sep-24 03:57N 34°27' W 120°26'0 0.0
2017-Sep-24 03:30N 34°27' W 120°26'0 0.1
2017-Sep-24 03:00N 34°27' W 120°26'0 0.0
2017-Sep-24 02:30N 34°27' W 120°26'0 0.0
2017-Sep-24 02:00N 34°27' W 120°26'0 0.0
2017-Sep-24 01:18N 34°27' W 120°26'0 0.0
2017-Sep-24 01:00N 34°27' W 120°26'0 0.0
2017-Sep-24 00:24N 34°27' W 120°26'0 0.0
2017-Sep-24 00:00N 34°27' W 120°26'0 0.6
2017-Sep-23 23:30N 34°27' W 120°26'2 3.5
2017-Sep-23 23:00N 34°26' W 120°24'2 3.1
2017-Sep-23 22:30N 34°26' W 120°23'1 2.9
2017-Sep-23 21:59N 34°25' W 120°21'2 3.2
2017-Sep-23 21:28N 34°26' W 120°19'3 4.9
2017-Sep-23 20:57N 34°26' W 120°16'3 6.2
2017-Sep-23 20:29N 34°25' W 120°13'5 6.2
2017-Sep-23 19:39N 34°25' W 120°07'21 0.5
2017-Sep-22 00:37N 34°24' W 119°42'0 0.0
2017-Sep-21 22:52N 34°24' W 119°42'0 0.0
2017-Sep-21 22:25N 34°24' W 119°42'0 0.0
2017-Sep-21 20:28N 34°24' W 119°42'0 0.0
2017-Sep-21 18:31N 34°24' W 119°42'0 0.0
2017-Sep-21 18:28N 34°24' W 119°42'0 0.0
2017-Sep-21 17:38N 34°24' W 119°42'0 0.0
2017-Sep-21 17:20N 34°24' W 119°42'0 0.0
2017-Sep-21 16:17N 34°24' W 119°42'0 0.0
2017-Sep-21 14:32N 34°24' W 119°42'0 0.0
2017-Sep-21 14:26N 34°24' W 119°42'0 0.0
2017-Sep-21 13:14N 34°24' W 119°42'0 0.0
2017-Sep-21 12:59N 34°24' W 119°42'0 0.0
2017-Sep-21 11:35N 34°24' W 119°42'0 0.0
2017-Sep-21 10:11N 34°24' W 119°42'0 0.0
2017-Sep-21 09:41N 34°24' W 119°42'0 0.0
2017-Sep-21 09:26N 34°24' W 119°42'0 0.0
2017-Sep-21 07:44N 34°24' W 119°42'0 0.0
2017-Sep-21 04:35N 34°24' W 119°42'0 0.0
2017-Sep-21 03:14N 34°24' W 119°42'0 0.2
2017-Sep-21 01:48N 34°24' W 119°41'1 3.8
2017-Sep-21 01:30N 34°23' W 119°41'3 5.2
2017-Sep-21 00:54N 34°20' W 119°42'3 6.2
2017-Sep-21 00:30N 34°18' W 119°43'4 6.4
2017-Sep-20 23:50N 34°14' W 119°45'2 7.0
2017-Sep-20 23:30N 34°12' W 119°46'4 6.9
2017-Sep-20 22:58N 34°08' W 119°47'3 6.2
2017-Sep-20 22:30N 34°05' W 119°48'2 2.8
2017-Sep-20 21:43N 34°03' W 119°49'0 0.0
2017-Sep-20 21:10N 34°03' W 119°49'0 0.0
2017-Sep-20 20:40N 34°03' W 119°49'0 0.0
2017-Sep-20 20:19N 34°03' W 119°49'0 0.0
2017-Sep-20 19:58N 34°03' W 119°49'0 0.0
2017-Sep-20 19:04N 34°03' W 119°49'0 1.6
2017-Sep-20 18:46N 34°04' W 119°49'3 5.2
2017-Sep-20 18:05N 34°04' W 119°45'2 6.4
2017-Sep-20 17:43N 34°04' W 119°42'1 6.2
2017-Sep-20 17:30N 34°04' W 119°41'4 6.2
2017-Sep-20 16:48N 34°04' W 119°35'4 6.5
2017-Sep-20 16:11N 34°02' W 119°31'1 0.1
2017-Sep-19 23:19N 34°01' W 119°31'2 5.9
2017-Sep-19 22:56N 34°01' W 119°28'4 5.2
2017-Sep-19 22:07N 34°00' W 119°23'1 5.4
2017-Sep-19 22:00N 34°00' W 119°22'3 4.8
2017-Sep-19 21:27N 33°59' W 119°19'2 5.3
2017-Sep-19 21:00N 33°59' W 119°16'3 4.9
2017-Sep-19 20:29N 33°59' W 119°13'3 5.8
2017-Sep-19 19:59N 33°59' W 119°10'3 5.7
2017-Sep-19 19:30N 33°59' W 119°06'3 5.4
2017-Sep-19 19:00N 33°59' W 119°03'3 5.6
2017-Sep-19 18:30N 33°59' W 118°60'3 5.7
2017-Sep-19 18:00N 33°59' W 118°56'3 5.7
2017-Sep-19 17:30N 33°59' W 118°53'  
2017-Sep-14 21:41N 34°01' W 118°55'2 6.7
2017-Sep-14 21:22N 34°02' W 118°58'2 5.6
2017-Sep-14 21:00N 34°02' W 119°00'3 6.4
2017-Sep-14 20:30N 34°03' W 119°04'2 3.2
2017-Sep-14 20:00N 34°04' W 119°05'2 4.3
2017-Sep-14 19:29N 34°05' W 119°08'3 4.8
2017-Sep-14 18:57N 34°06' W 119°10'2 4.5
2017-Sep-14 18:26N 34°08' W 119°13'2 3.7
2017-Sep-14 18:00N 34°09' W 119°14'  

Dump ship's entire track history